createdAt,value
2018-12-25T00:00:47.828Z,7.30
2018-12-25T00:03:21.571Z,7.30
2018-12-25T00:05:56.456Z,7.30
2018-12-25T00:08:30.269Z,7.20
2018-12-25T00:11:04.349Z,7.30
2018-12-25T00:13:38.149Z,7.30
2018-12-25T00:18:54.976Z,7.20
2018-12-25T00:21:28.768Z,7.20
2018-12-25T00:24:03.232Z,7.20
2018-12-25T00:26:37.041Z,7.20
2018-12-25T00:31:50.588Z,7.20
2018-12-25T00:34:24.350Z,7.20
2018-12-25T00:36:59.173Z,7.20
2018-12-25T00:42:17.960Z,7.20
2018-12-25T00:44:51.805Z,7.20
2018-12-25T00:47:25.578Z,7.20
2018-12-25T00:50:00.147Z,7.20
2018-12-25T00:52:33.924Z,7.20
2018-12-25T00:55:07.684Z,7.20
2018-12-25T00:57:41.504Z,7.10
2018-12-25T01:00:15.248Z,7.10
2018-12-25T01:02:49.042Z,7.10
2018-12-25T01:05:22.768Z,7.10
2018-12-25T01:07:56.842Z,7.10
2018-12-25T01:10:31.367Z,7.10
2018-12-25T01:13:05.929Z,7.10
2018-12-25T01:15:39.726Z,7.10
2018-12-25T01:18:13.480Z,7.10
2018-12-25T01:20:47.249Z,7.10
2018-12-25T01:23:21.050Z,7.10
2018-12-25T01:25:54.795Z,7.10
2018-12-25T01:28:28.586Z,7.00
2018-12-25T01:31:02.369Z,7.00
2018-12-25T01:33:36.433Z,7.00
2018-12-25T01:36:10.218Z,6.90
2018-12-25T01:38:44.017Z,6.90
2018-12-25T01:41:18.331Z,6.90
2018-12-25T01:43:52.274Z,6.90
2018-12-25T01:46:26.261Z,6.90
2018-12-25T01:48:59.996Z,6.90
2018-12-25T01:51:34.560Z,6.90
2018-12-25T01:54:08.316Z,6.90
2018-12-25T01:56:42.064Z,6.80
2018-12-25T01:59:15.859Z,6.80
2018-12-25T02:01:49.644Z,6.80
2018-12-25T02:04:24.184Z,6.70
2018-12-25T02:06:57.932Z,6.70
2018-12-25T02:09:31.729Z,6.70
2018-12-25T02:12:05.532Z,6.60
2018-12-25T02:14:39.581Z,6.60
2018-12-25T02:17:13.441Z,6.70
2018-12-25T02:19:47.212Z,6.70
2018-12-25T02:22:21.067Z,6.60
2018-12-25T02:24:54.932Z,6.70
2018-12-25T02:27:29.436Z,6.60
2018-12-25T02:30:03.242Z,6.60
2018-12-25T02:32:36.998Z,6.60
2018-12-25T02:35:10.770Z,6.60
2018-12-25T02:37:45.369Z,6.60
2018-12-25T02:40:19.189Z,6.60
2018-12-25T02:42:54.040Z,6.60
2018-12-25T02:45:28.523Z,6.60
2018-12-25T02:48:02.562Z,6.50
2018-12-25T02:50:37.109Z,6.50
2018-12-25T02:53:10.839Z,6.50
2018-12-25T02:55:44.598Z,6.60
2018-12-25T02:58:19.139Z,6.50
2018-12-25T03:00:53.135Z,6.50
2018-12-25T03:03:27.901Z,6.50
2018-12-25T03:06:02.065Z,6.50
2018-12-25T03:08:35.866Z,6.50
2018-12-25T03:11:09.722Z,6.50
2018-12-25T03:13:43.502Z,6.60
2018-12-25T03:16:17.313Z,6.50
2018-12-25T03:18:51.081Z,6.60
2018-12-25T03:21:24.885Z,6.60
2018-12-25T03:23:58.651Z,6.60
2018-12-25T03:26:32.419Z,6.50
2018-12-25T03:29:06.994Z,6.60
2018-12-25T03:31:40.752Z,6.50
2018-12-25T03:34:15.250Z,6.50
2018-12-25T03:36:49.016Z,6.50
2018-12-25T03:39:23.328Z,6.50
2018-12-25T03:41:57.122Z,6.50
2018-12-25T03:44:30.870Z,6.50
2018-12-25T03:47:04.647Z,6.50
2018-12-25T03:49:38.475Z,6.60
2018-12-25T03:52:12.603Z,6.60
2018-12-25T03:54:46.453Z,6.60
2018-12-25T03:57:20.969Z,6.60
2018-12-25T03:59:55.006Z,6.60
2018-12-25T04:02:28.791Z,6.50
2018-12-25T04:05:03.323Z,6.60
2018-12-25T04:07:37.140Z,6.50
2018-12-25T04:10:10.882Z,6.50
2018-12-25T04:12:44.725Z,6.60
2018-12-25T04:15:18.475Z,6.60
2018-12-25T04:17:52.249Z,6.60
2018-12-25T04:20:26.002Z,6.60
2018-12-25T04:22:59.741Z,6.60
2018-12-25T04:28:18.403Z,6.60
2018-12-25T04:30:52.203Z,6.60
2018-12-25T04:33:25.986Z,6.60
2018-12-25T04:35:59.757Z,6.60
2018-12-25T04:38:33.593Z,6.60
2018-12-25T04:41:07.394Z,6.60
2018-12-25T04:43:41.437Z,6.70
2018-12-25T04:46:15.564Z,6.70
2018-12-25T04:48:49.354Z,6.70
2018-12-25T04:51:23.455Z,6.70
2018-12-25T04:53:57.517Z,6.70
2018-12-25T04:56:32.336Z,6.60
2018-12-25T04:59:06.112Z,6.60
2018-12-25T05:01:40.482Z,6.60
2018-12-25T05:04:14.275Z,6.60
2018-12-25T05:06:48.761Z,6.60
2018-12-25T05:09:22.578Z,6.60
2018-12-25T05:11:56.371Z,6.60
2018-12-25T05:14:30.105Z,6.60
2018-12-25T05:17:04.588Z,6.70
2018-12-25T05:19:38.379Z,6.70
2018-12-25T05:22:12.544Z,6.60
2018-12-25T05:24:47.037Z,6.60
2018-12-25T05:27:20.794Z,6.60
2018-12-25T05:29:54.557Z,6.60
2018-12-25T05:32:28.345Z,6.60
2018-12-25T05:35:02.896Z,6.60
2018-12-25T05:37:36.635Z,6.60
2018-12-25T05:40:10.447Z,6.70
2018-12-25T05:42:44.234Z,6.70
2018-12-25T05:45:18.793Z,6.70
2018-12-25T05:47:52.581Z,6.70
2018-12-25T05:50:26.676Z,6.70
2018-12-25T05:53:01.236Z,6.70
2018-12-25T05:55:35.491Z,6.70
2018-12-25T05:58:09.103Z,6.70
2018-12-25T06:00:43.025Z,6.70
2018-12-25T06:03:17.581Z,6.80
2018-12-25T06:05:51.321Z,6.70
2018-12-25T06:08:25.125Z,6.80
2018-12-25T06:10:59.039Z,6.70
2018-12-25T06:13:32.683Z,6.80
2018-12-25T06:16:07.574Z,6.80
2018-12-25T06:18:41.411Z,6.80
2018-12-25T06:21:15.885Z,6.80
2018-12-25T06:23:49.671Z,6.80
2018-12-25T06:26:23.544Z,6.80
2018-12-25T06:28:58.082Z,6.80
2018-12-25T06:31:32.599Z,6.80
2018-12-25T06:34:07.153Z,6.80
2018-12-25T06:36:41.338Z,6.80
2018-12-25T06:39:15.838Z,6.80
2018-12-25T06:41:49.623Z,6.80
2018-12-25T06:44:23.366Z,6.80
2018-12-25T06:46:57.884Z,6.80
2018-12-25T06:49:31.646Z,6.80
2018-12-25T06:52:05.597Z,6.80
2018-12-25T06:54:41.136Z,6.80
2018-12-25T06:57:15.638Z,6.80
2018-12-25T06:59:49.391Z,6.80
2018-12-25T07:02:23.154Z,6.80
2018-12-25T07:04:56.948Z,6.80
2018-12-25T07:07:31.029Z,6.80
2018-12-25T07:10:05.080Z,6.80
2018-12-25T07:12:38.802Z,6.80
2018-12-25T07:15:12.548Z,6.80
2018-12-25T07:17:46.642Z,6.80
2018-12-25T07:20:21.177Z,6.80
2018-12-25T07:25:36.542Z,6.80
2018-12-25T07:28:10.309Z,6.80
2018-12-25T07:30:44.056Z,6.80
2018-12-25T07:33:17.896Z,6.90
2018-12-25T07:35:51.849Z,6.80
2018-12-25T07:38:25.529Z,6.90
2018-12-25T07:40:59.556Z,6.90
2018-12-25T07:43:33.436Z,6.90
2018-12-25T07:46:07.225Z,6.90
2018-12-25T07:48:41.038Z,6.90
2018-12-25T07:51:20.752Z,6.90
2018-12-25T07:53:50.809Z,6.90
2018-12-25T07:56:24.880Z,7.00
2018-12-25T07:58:58.651Z,6.90
2018-12-25T08:01:32.435Z,6.90
2018-12-25T08:04:06.477Z,6.90
2018-12-25T08:06:40.335Z,6.90
2018-12-25T08:09:14.838Z,6.90
2018-12-25T08:11:48.609Z,6.90
2018-12-25T08:14:22.401Z,7.00
2018-12-25T08:16:56.156Z,7.00
2018-12-25T08:19:30.000Z,7.00
2018-12-25T08:22:03.781Z,7.00
2018-12-25T08:24:38.563Z,7.00
2018-12-25T08:27:12.701Z,7.00
2018-12-25T08:29:46.530Z,7.00
2018-12-25T08:32:21.339Z,7.10
2018-12-25T08:34:56.185Z,7.10
2018-12-25T08:37:30.692Z,7.10
2018-12-25T08:42:44.315Z,7.20
2018-12-25T08:45:18.144Z,7.20
2018-12-25T08:47:51.951Z,7.20
2018-12-25T08:50:26.006Z,7.20
2018-12-25T08:55:41.633Z,7.30
2018-12-25T08:58:15.432Z,7.30
2018-12-25T09:00:49.201Z,7.40
2018-12-25T09:03:22.940Z,7.40
2018-12-25T09:05:56.825Z,7.40
2018-12-25T09:11:11.153Z,7.40
2018-12-25T09:13:44.942Z,7.50
2018-12-25T09:18:58.913Z,7.50
2018-12-25T09:21:32.697Z,7.60
2018-12-25T09:24:06.469Z,7.80
2018-12-25T09:29:22.432Z,8.20
2018-12-25T09:31:56.904Z,8.40
2018-12-25T09:34:31.768Z,8.50
2018-12-25T09:39:47.730Z,8.60
2018-12-25T09:42:22.238Z,8.60
2018-12-25T09:44:56.000Z,8.60
2018-12-25T09:50:11.819Z,8.70
2018-12-25T09:52:45.638Z,8.70
2018-12-25T09:58:00.919Z,8.70
2018-12-25T10:00:34.703Z,8.80
2018-12-25T10:03:08.499Z,8.90
2018-12-25T10:05:42.561Z,9.20
2018-12-25T10:08:17.809Z,9.80
2018-12-25T10:13:33.576Z,11.60
2018-12-25T10:18:53.265Z,11.90
2018-12-25T10:21:27.043Z,12.10
2018-12-25T10:26:42.993Z,12.10
2018-12-25T10:29:17.175Z,12.20
2018-12-25T10:31:51.680Z,12.00
2018-12-25T10:34:26.206Z,11.80
2018-12-25T10:39:47.221Z,11.70
2018-12-25T10:42:21.015Z,11.50
2018-12-25T10:47:36.935Z,11.70
2018-12-25T10:50:11.356Z,11.60
2018-12-25T10:52:45.306Z,11.80
2018-12-25T10:55:19.389Z,12.00
2018-12-25T10:57:54.295Z,12.60
2018-12-25T11:00:32.524Z,12.70
2018-12-25T11:03:06.237Z,13.00
2018-12-25T11:05:40.768Z,13.60
2018-12-25T11:08:15.698Z,13.70
2018-12-25T11:10:50.175Z,13.80
2018-12-25T11:13:24.243Z,13.80
2018-12-25T11:15:58.762Z,13.70
2018-12-25T11:26:38.274Z,13.40
2018-12-25T11:29:12.081Z,13.40
2018-12-25T11:31:45.877Z,13.30
2018-12-25T11:36:59.844Z,13.10
2018-12-25T11:39:33.964Z,12.90
2018-12-25T11:47:30.870Z,12.70
2018-12-25T11:50:04.952Z,12.60
2018-12-25T11:52:38.805Z,12.50
2018-12-25T11:57:58.796Z,12.30
2018-12-25T12:00:32.609Z,12.20
2018-12-25T12:03:06.408Z,12.10
2018-12-25T12:08:20.023Z,12.00
2018-12-25T12:10:54.543Z,11.90
2018-12-25T12:13:28.306Z,11.90
2018-12-25T12:18:41.935Z,11.90
2018-12-25T12:21:15.732Z,12.00
2018-12-25T12:23:49.569Z,12.00
2018-12-25T12:29:05.499Z,11.90
2018-12-25T12:31:39.332Z,11.90
2018-12-25T12:36:54.877Z,11.80
2018-12-25T12:39:28.669Z,11.80
2018-12-25T12:42:02.714Z,11.80
2018-12-25T12:47:22.369Z,11.70
2018-12-25T12:49:56.164Z,11.60
2018-12-25T12:52:29.962Z,11.50
2018-12-25T12:57:43.312Z,11.40
2018-12-25T13:00:17.431Z,11.40
2018-12-25T13:02:51.279Z,11.40
2018-12-25T13:08:06.532Z,11.30
2018-12-25T13:10:40.443Z,11.30
2018-12-25T13:13:14.525Z,11.30
2018-12-25T13:18:28.861Z,11.20
2018-12-25T13:21:02.969Z,11.30
2018-12-25T13:23:36.739Z,11.30
2018-12-25T13:26:10.545Z,11.30
2018-12-25T13:28:44.369Z,11.30
2018-12-25T13:31:18.189Z,11.20
2018-12-25T13:33:51.918Z,11.20
2018-12-25T13:36:26.037Z,11.10
2018-12-25T13:41:39.375Z,11.00
2018-12-25T13:44:13.953Z,10.80
2018-12-25T13:46:51.804Z,10.70
2018-12-25T13:49:22.717Z,10.70
2018-12-25T13:51:56.576Z,10.70
2018-12-25T13:57:12.903Z,10.50
2018-12-25T13:59:47.093Z,10.50
2018-12-25T14:07:45.106Z,10.20
2018-12-25T14:10:18.921Z,10.20
2018-12-25T14:12:53.443Z,10.20
2018-12-25T14:18:08.222Z,10.10
2018-12-25T14:20:42.761Z,10.10
2018-12-25T14:23:16.838Z,10.10
2018-12-25T14:25:50.580Z,10.00
2018-12-25T14:28:24.447Z,10.00
2018-12-25T14:30:58.250Z,9.90
2018-12-25T14:33:32.001Z,9.90
2018-12-25T14:36:05.779Z,9.90
2018-12-25T14:41:23.522Z,9.80
2018-12-25T14:44:04.979Z,9.80
2018-12-25T14:46:31.190Z,9.70
2018-12-25T14:51:46.312Z,9.60
2018-12-25T14:54:20.445Z,9.60
2018-12-25T14:56:54.224Z,9.60
2018-12-25T14:59:27.993Z,9.50
2018-12-25T15:07:24.805Z,9.40
2018-12-25T15:09:58.604Z,9.30
2018-12-25T15:12:32.664Z,9.30
2018-12-25T15:17:47.064Z,9.20
2018-12-25T15:20:21.292Z,9.10
2018-12-25T15:22:55.093Z,9.10
2018-12-25T15:28:10.564Z,9.00
2018-12-25T15:30:45.433Z,8.90
2018-12-25T15:33:19.270Z,8.90
2018-12-25T15:38:34.481Z,8.70
2018-12-25T15:41:08.239Z,8.70
2018-12-25T15:43:42.298Z,8.60
2018-12-25T15:48:57.544Z,8.50
2018-12-25T15:51:31.648Z,8.50
2018-12-25T15:54:05.417Z,8.40
2018-12-25T15:56:40.111Z,8.30
2018-12-25T16:01:55.723Z,8.20
2018-12-25T16:04:29.900Z,8.10
2018-12-25T16:07:03.949Z,8.10
2018-12-25T16:09:37.702Z,8.00
2018-12-25T16:12:11.542Z,7.90
2018-12-25T16:14:45.878Z,7.90
2018-12-25T16:17:19.618Z,7.80
2018-12-25T16:19:54.131Z,7.80
2018-12-25T16:25:08.496Z,7.70
2018-12-25T16:27:42.301Z,7.70
2018-12-25T16:30:16.841Z,7.70
2018-12-25T16:32:51.370Z,7.60
2018-12-25T16:35:25.229Z,7.60
2018-12-25T16:37:59.326Z,7.60
2018-12-25T16:40:33.074Z,7.60
2018-12-25T16:43:06.852Z,7.60
2018-12-25T16:45:40.667Z,7.60
2018-12-25T16:48:14.451Z,7.60
2018-12-25T16:50:48.196Z,7.50
2018-12-25T16:53:22.282Z,7.60
2018-12-25T16:55:56.109Z,7.50
2018-12-25T16:58:29.901Z,7.50
2018-12-25T17:01:03.977Z,7.50
2018-12-25T17:03:37.717Z,7.50
2018-12-25T17:06:11.503Z,7.50
2018-12-25T17:08:45.750Z,7.40
2018-12-25T17:11:19.502Z,7.40
2018-12-25T17:13:53.599Z,7.40
2018-12-25T17:16:28.101Z,7.30
2018-12-25T17:27:06.029Z,7.30
2018-12-25T17:29:39.828Z,7.30
2018-12-25T17:32:13.625Z,7.30
2018-12-25T17:37:29.495Z,7.30
2018-12-25T17:40:01.475Z,7.30
2018-12-25T17:45:17.005Z,7.30
2018-12-25T17:47:50.804Z,7.40
2018-12-25T17:50:24.608Z,7.40
2018-12-25T17:52:58.417Z,7.30
2018-12-25T17:55:32.265Z,7.30
2018-12-25T18:00:48.274Z,7.20
2018-12-25T18:03:23.534Z,7.20
2018-12-25T18:05:58.068Z,7.20
2018-12-25T18:08:31.830Z,7.20
2018-12-25T18:11:06.493Z,7.20
2018-12-25T18:18:59.639Z,7.10
2018-12-25T18:21:33.481Z,7.10
2018-12-25T18:26:49.700Z,7.00
2018-12-25T18:29:23.502Z,7.00
2018-12-25T18:31:57.427Z,7.00
2018-12-25T18:37:17.161Z,6.90
2018-12-25T18:40:00.159Z,6.90
2018-12-25T18:42:34.091Z,6.90
2018-12-25T18:47:50.423Z,6.90
2018-12-25T18:50:24.205Z,6.80
2018-12-25T18:52:57.983Z,6.80
2018-12-25T18:55:31.769Z,6.90
2018-12-25T19:00:47.820Z,6.90
2018-12-25T19:03:21.616Z,7.00
2018-12-25T19:05:55.716Z,7.00
2018-12-25T19:08:29.461Z,7.00
2018-12-25T19:11:03.293Z,7.00
2018-12-25T19:13:37.881Z,7.00
2018-12-25T19:18:51.436Z,7.00
2018-12-25T19:21:25.550Z,7.00
2018-12-25T19:24:02.311Z,7.00
2018-12-25T19:29:17.581Z,7.00
2018-12-25T19:31:52.128Z,7.00
2018-12-25T19:34:25.992Z,7.00
2018-12-25T19:39:41.962Z,7.00
2018-12-25T19:42:16.080Z,7.00
2018-12-25T19:47:30.901Z,7.00
2018-12-25T19:50:04.673Z,7.00
2018-12-25T19:52:38.456Z,7.00
2018-12-25T19:55:12.210Z,7.00
2018-12-25T19:57:46.338Z,6.90
2018-12-25T20:00:21.142Z,6.90
2018-12-25T20:03:22.404Z,6.90
2018-12-25T20:07:06.466Z,7.00
2018-12-25T20:17:27.131Z,6.90
2018-12-25T20:20:54.813Z,6.80
2018-12-25T20:27:52.083Z,6.80
2018-12-25T20:31:19.595Z,6.80
2018-12-25T20:49:38.030Z,6.80
2018-12-25T20:53:11.530Z,6.80
2018-12-25T21:00:02.551Z,6.60
2018-12-25T21:03:49.664Z,6.60
2018-12-25T21:11:32.593Z,6.50
2018-12-25T21:18:44.010Z,6.40
2018-12-25T21:22:30.536Z,6.30
2018-12-25T21:28:40.217Z,5.90
2018-12-25T21:31:14.738Z,5.80
2018-12-25T21:33:49.236Z,5.70
2018-12-25T21:39:05.502Z,5.60
2018-12-25T21:41:40.332Z,5.50
2018-12-25T21:46:55.565Z,5.50
2018-12-25T21:49:30.125Z,5.50
2018-12-25T21:52:03.937Z,5.40
2018-12-25T21:57:19.902Z,5.50
2018-12-25T21:59:53.744Z,5.50
2018-12-25T22:02:28.492Z,5.50
2018-12-25T22:05:02.299Z,5.50
2018-12-25T22:10:17.939Z,5.50
2018-12-25T22:12:52.013Z,5.40
2018-12-25T22:18:09.408Z,5.30
2018-12-25T22:20:42.121Z,5.20
2018-12-25T22:23:15.929Z,5.10
2018-12-25T22:25:50.431Z,5.00
2018-12-25T22:28:24.265Z,4.90
2018-12-25T22:30:58.833Z,4.80
2018-12-25T22:33:32.565Z,4.80
2018-12-25T22:36:06.607Z,4.80
2018-12-25T22:38:41.137Z,4.70
2018-12-25T22:41:15.264Z,4.70
2018-12-25T22:43:49.053Z,4.60
2018-12-25T22:46:23.561Z,4.50
2018-12-25T22:48:57.708Z,4.50
2018-12-25T22:51:31.510Z,4.50
2018-12-25T22:54:05.569Z,4.50
2018-12-25T22:56:39.498Z,4.40
2018-12-25T22:59:14.056Z,4.40
2018-12-25T23:01:47.818Z,4.30
2018-12-25T23:04:21.577Z,4.30
2018-12-25T23:06:55.592Z,4.30
2018-12-25T23:09:29.461Z,4.20
2018-12-25T23:12:03.214Z,4.20
2018-12-25T23:14:37.255Z,4.20
2018-12-25T23:19:50.562Z,4.20
2018-12-25T23:22:24.361Z,4.10
2018-12-25T23:24:58.197Z,4.10
2018-12-25T23:27:31.962Z,4.10
2018-12-25T23:30:06.174Z,4.10
2018-12-25T23:32:39.963Z,4.00
2018-12-25T23:35:16.162Z,4.00
2018-12-25T23:37:49.946Z,4.00
2018-12-25T23:43:06.662Z,4.00
2018-12-25T23:45:41.180Z,3.90
2018-12-25T23:58:52.598Z,3.90
